Time;durP1;ratioP1;P1;durP2;ratioP2;P2;SDS_P1;SDS_P2;PMS_P1;PMS_P2;Temp;Humidity;BMP_temperature;BMP_pressure;BME280_temperature;BME280_humidity;BME280_pressure;Samples;Min_cycle;Max_cycle;Signal;HPM_P1;HPM_P2
2023/03/09 00:01:50;;;;;;;29.30;15.10;;;;;;;6.18;59.46;99963.86;107463;1254;113198;-63
2023/03/09 00:04:19;;;;;;;26.30;13.50;;;;;;;6.16;59.78;99963.01;107438;1254;111377;-64
2023/03/09 00:06:48;;;;;;;30.60;14.10;;;;;;;6.16;59.51;99952.89;107479;1254;108467;-66
2023/03/09 00:09:17;;;;;;;34.80;15.40;;;;;;;6.15;59.49;99948.48;107426;1254;99175;-63
2023/03/09 00:11:47;;;;;;;35.50;13.10;;;;;;;6.13;59.60;99944.17;107454;1254;99813;-64
2023/03/09 00:14:18;;;;;;;28.00;13.70;;;;;;;6.13;59.66;99943.51;107443;1254;113144;-64
2023/03/09 00:16:46;;;;;;;23.80;12.40;;;;;;;6.10;59.63;99936.96;107452;1254;110431;-64
2023/03/09 00:19:20;;;;;;;32.90;14.10;;;;;;;6.10;59.65;99931.81;107348;1257;107695;-64
2023/03/09 00:21:51;;;;;;;28.60;13.50;;;;;;;6.09;59.90;99919.76;107457;1254;99161;-65
2023/03/09 00:24:26;;;;;;;28.10;13.60;;;;;;;6.10;59.98;99917.23;107476;1254;99265;-64
2023/03/09 00:26:57;;;;;;;29.70;13.50;;;;;;;6.08;59.89;99917.02;107416;1254;113953;-64
2023/03/09 00:29:28;;;;;;;34.00;15.00;;;;;;;6.07;59.98;99922.29;107468;1254;110021;-64
2023/03/09 00:31:58;;;;;;;22.90;13.00;;;;;;;6.07;59.99;99920.47;107388;1254;108643;-65
2023/03/09 00:34:26;;;;;;;26.00;12.90;;;;;;;6.07;60.18;99922.65;107494;1254;99166;-65
2023/03/09 00:36:55;;;;;;;31.00;12.20;;;;;;;6.05;59.98;99915.87;107353;1254;100737;-65
2023/03/09 00:39:24;;;;;;;39.20;12.30;;;;;;;6.04;60.28;99917.77;107428;1254;113046;-65
2023/03/09 00:41:53;;;;;;;28.50;12.60;;;;;;;6.01;60.53;99910.45;107442;1259;108681;-65
2023/03/09 00:44:21;;;;;;;28.80;12.20;;;;;;;6.00;60.62;99899.00;107432;1254;108155;-64
2023/03/09 00:46:50;;;;;;;23.90;12.90;;;;;;;6.00;60.61;99892.05;107427;1254;99263;-64
2023/03/09 00:49:19;;;;;;;25.30;13.20;;;;;;;6.02;60.51;99882.11;107444;1254;99755;-65
2023/03/09 00:51:47;;;;;;;25.60;12.60;;;;;;;6.04;60.61;99884.08;107469;1254;113711;-65
2023/03/09 00:54:16;;;;;;;28.70;12.10;;;;;;;6.03;60.56;99880.58;107337;1254;109680;-65
2023/03/09 00:56:45;;;;;;;28.00;12.60;;;;;;;6.02;60.42;99878.88;107413;1254;108048;-64
2023/03/09 00:59:13;;;;;;;32.60;12.00;;;;;;;6.03;60.80;99877.39;107292;1254;99188;-65
2023/03/09 01:01:41;;;;;;;25.40;12.10;;;;;;;6.02;60.70;99875.70;107431;1254;99721;-66
2023/03/09 01:04:11;;;;;;;26.70;13.50;;;;;;;6.01;60.81;99874.17;107449;1258;112389;-65
2023/03/09 01:06:39;;;;;;;27.00;11.30;;;;;;;6.04;61.18;99873.95;107339;1254;109951;-69
2023/03/09 01:09:09;;;;;;;21.60;11.90;;;;;;;6.07;61.28;99871.36;107437;1254;108115;-66
2023/03/09 01:11:37;;;;;;;21.40;11.70;;;;;;;6.08;61.52;99863.25;107331;1254;99195;-66
2023/03/09 01:14:06;;;;;;;33.00;11.60;;;;;;;6.13;61.50;99861.84;107411;1258;99058;-68
2023/03/09 01:16:34;;;;;;;19.10;10.60;;;;;;;6.18;61.84;99857.60;107408;1254;112598;-66
2023/03/09 01:19:03;;;;;;;26.40;12.00;;;;;;;6.23;62.00;99852.91;107318;1254;110497;-64
2023/03/09 01:21:31;;;;;;;26.70;11.30;;;;;;;6.26;61.73;99852.83;107326;1254;109749;-65
2023/03/09 01:23:59;;;;;;;29.60;12.20;;;;;;;6.29;61.91;99854.02;107453;1254;99167;-66
2023/03/09 01:26:28;;;;;;;28.50;12.00;;;;;;;6.30;62.06;99852.85;107420;1254;99717;-65
2023/03/09 01:28:58;;;;;;;25.80;11.80;;;;;;;6.31;61.96;99850.30;107352;1254;113731;-66
2023/03/09 01:31:26;;;;;;;9.30;4.70;;;;;;;6.34;62.74;99851.08;107418;1254;109447;-65
2023/03/09 01:33:55;;;;;;;13.60;8.40;;;;;;;6.51;62.03;99843.40;107440;1259;107776;-66
2023/03/09 01:36:23;;;;;;;11.20;4.60;;;;;;;6.66;61.60;99845.19;107290;1254;99375;-68
2023/03/09 01:38:52;;;;;;;12.10;4.00;;;;;;;6.88;60.58;99841.64;107340;1254;99283;-65
2023/03/09 01:41:22;;;;;;;18.70;7.50;;;;;;;7.08;60.42;99847.36;107366;1259;113784;-67
2023/03/09 01:43:52;;;;;;;5.90;4.10;;;;;;;7.23;59.99;99852.16;107362;1254;110116;-65
2023/03/09 01:46:26;;;;;;;10.10;3.90;;;;;;;7.38;59.27;99843.51;107454;1254;107646;-66
2023/03/09 01:48:55;;;;;;;6.80;3.80;;;;;;;7.55;58.49;99835.67;107425;1258;99237;-65
2023/03/09 01:51:30;;;;;;;5.80;3.00;;;;;;;7.69;57.70;99832.84;107468;1254;99727;-65
2023/03/09 01:54:02;;;;;;;7.40;3.50;;;;;;;7.84;57.05;99830.45;107471;1254;113637;-64
2023/03/09 01:56:31;;;;;;;10.80;3.60;;;;;;;8.00;55.81;99825.36;107445;1254;110111;-65
2023/03/09 01:59:02;;;;;;;6.20;2.90;;;;;;;8.18;55.44;99822.48;107383;1254;108202;-64
2023/03/09 02:01:31;;;;;;;7.30;3.30;;;;;;;8.34;54.72;99818.81;107340;1254;99205;-65
2023/03/09 02:04:08;;;;;;;6.30;3.30;;;;;;;8.49;54.81;99820.67;107464;1258;99054;-65
2023/03/09 02:06:37;;;;;;;10.00;3.80;;;;;;;8.62;53.49;99816.91;107487;1254;113701;-65
2023/03/09 02:09:20;;;;;;;8.20;4.00;;;;;;;8.76;52.99;99812.16;107475;1254;109021;-64
2023/03/09 02:11:50;;;;;;;8.80;3.30;;;;;;;8.88;52.72;99808.16;107443;1258;108191;-66
2023/03/09 02:14:20;;;;;;;7.60;3.00;;;;;;;8.97;52.76;99806.61;107478;1259;99182;-64
2023/03/09 02:16:48;;;;;;;8.00;3.40;;;;;;;9.04;52.08;99807.50;107386;1259;99214;-64
2023/03/09 02:19:46;;;;;;;8.50;3.20;;;;;;;9.13;51.55;99801.83;107478;1254;113298;-64
2023/03/09 02:22:15;;;;;;;8.40;3.30;;;;;;;9.25;51.45;99790.27;107127;1254;109071;-65
2023/03/09 02:24:53;;;;;;;9.10;3.30;;;;;;;9.31;51.51;99787.87;107323;1254;109426;-65
2023/03/09 02:27:25;;;;;;;8.20;3.60;;;;;;;9.34;51.76;99788.45;107363;1259;99189;-65
2023/03/09 02:29:55;;;;;;;4.50;3.20;;;;;;;9.37;51.55;99788.16;107379;1259;99733;-65
2023/03/09 02:32:25;;;;;;;5.90;3.20;;;;;;;9.41;51.09;99788.69;107287;1257;113628;-64
2023/03/09 02:34:55;;;;;;;4.50;3.10;;;;;;;9.46;51.19;99793.89;107313;1257;109051;-65
2023/03/09 02:37:33;;;;;;;10.00;2.90;;;;;;;9.50;51.17;99801.08;107382;1257;107486;-65
2023/03/09 02:40:11;;;;;;;5.30;3.00;;;;;;;9.50;51.19;99795.11;107293;1257;99223;-64
2023/03/09 02:42:42;;;;;;;7.70;3.10;;;;;;;9.54;50.57;99797.08;107273;1255;99253;-64
2023/03/09 02:45:14;;;;;;;6.10;3.00;;;;;;;9.62;50.06;99800.79;107291;1258;113289;-65
2023/03/09 02:47:46;;;;;;;8.00;3.30;;;;;;;9.71;49.19;99798.81;107325;1257;109076;-65
2023/03/09 02:50:16;;;;;;;5.60;3.30;;;;;;;9.82;48.88;99790.86;107387;1257;109316;-65
2023/03/09 02:52:44;;;;;;;8.50;3.30;;;;;;;9.90;48.52;99783.41;107309;1257;99202;-64
2023/03/09 02:55:14;;;;;;;5.50;3.10;;;;;;;9.99;48.48;99782.15;107478;1254;99736;-64
2023/03/09 02:57:43;;;;;;;6.10;2.90;;;;;;;10.06;48.18;99778.13;107339;1253;113124;-64
2023/03/09 03:00:15;;;;;;;7.30;3.40;;;;;;;10.10;48.05;99773.91;107448;1254;109901;-65
2023/03/09 03:02:43;;;;;;;10.30;3.30;;;;;;;10.12;48.08;99774.27;107297;1254;107282;-65
2023/03/09 03:05:12;;;;;;;5.20;3.20;;;;;;;10.15;47.84;99776.45;107412;1254;99326;-66
2023/03/09 03:07:41;;;;;;;5.70;3.40;;;;;;;10.16;47.68;99772.42;107437;1254;99736;-64
2023/03/09 03:10:11;;;;;;;7.10;2.90;;;;;;;10.16;48.00;99771.48;107435;1254;112636;-65
2023/03/09 03:12:39;;;;;;;7.20;3.40;;;;;;;10.16;47.92;99767.03;107321;1259;108746;-65
2023/03/09 03:15:09;;;;;;;8.00;3.10;;;;;;;10.15;47.75;99766.52;107454;1254;107443;-64
2023/03/09 03:17:37;;;;;;;8.20;2.50;;;;;;;10.14;47.74;99772.73;107450;1259;99177;-66
2023/03/09 03:20:13;;;;;;;7.50;2.90;;;;;;;10.13;47.71;99778.74;107441;1254;99710;-65
2023/03/09 03:22:43;;;;;;;7.10;3.20;;;;;;;10.10;47.74;99771.04;107488;1258;113675;-65
2023/03/09 03:25:12;;;;;;;7.80;3.10;;;;;;;10.06;47.79;99771.85;107459;1257;109277;-65
2023/03/09 03:27:44;;;;;;;9.70;3.40;;;;;;;10.01;47.99;99771.55;107392;1255;109772;-65
2023/03/09 03:30:14;;;;;;;11.30;3.40;;;;;;;9.96;47.86;99767.05;107481;1254;99147;-66
2023/03/09 03:32:45;;;;;;;5.90;2.80;;;;;;;9.90;48.12;99766.12;107336;1256;99105;-65
2023/03/09 03:35:16;;;;;;;7.20;2.60;;;;;;;9.82;48.01;99765.40;107467;1255;112317;-65
2023/03/09 03:37:45;;;;;;;6.50;2.70;;;;;;;9.80;47.85;99763.69;107440;1254;109595;-64
2023/03/09 03:40:15;;;;;;;5.40;2.70;;;;;;;9.86;47.24;99752.50;107289;1260;108150;-65
2023/03/09 03:42:45;;;;;;;7.60;3.20;;;;;;;9.94;47.20;99749.57;107438;1254;99185;-65
2023/03/09 03:45:13;;;;;;;7.30;3.10;;;;;;;10.00;46.92;99746.79;107488;1259;99073;-64
2023/03/09 03:47:43;;;;;;;10.90;3.30;;;;;;;10.02;46.98;99737.83;107307;1254;113260;-66
2023/03/09 03:50:12;;;;;;;8.50;3.20;;;;;;;10.01;47.04;99733.45;107366;1255;110208;-64
2023/03/09 03:52:56;;;;;;;6.60;3.70;;;;;;;9.97;47.27;99736.36;107415;1254;108248;-64
2023/03/09 03:55:24;;;;;;;5.90;2.80;;;;;;;9.92;47.24;99734.91;107437;1254;99167;-66
2023/03/09 03:57:53;;;;;;;5.10;3.00;;;;;;;9.89;47.21;99736.11;107341;1260;99087;-65
2023/03/09 04:00:24;;;;;;;8.10;3.30;;;;;;;9.85;47.37;99733.96;107448;1254;112830;-64
2023/03/09 04:02:58;;;;;;;8.90;3.80;;;;;;;9.80;47.36;99739.50;107447;1257;109311;-65
2023/03/09 04:05:37;;;;;;;12.80;3.30;;;;;;;9.78;47.42;99732.02;107448;1259;109279;-66
2023/03/09 04:08:05;;;;;;;13.70;3.70;;;;;;;9.75;47.56;99729.68;107447;1254;99172;-66
2023/03/09 04:10:38;;;;;;;8.30;3.10;;;;;;;9.69;47.43;99727.48;107419;1254;99194;-65
2023/03/09 04:13:08;;;;;;;9.20;3.80;;;;;;;9.70;47.21;99726.92;107366;1262;112775;-65
2023/03/09 04:15:37;;;;;;;5.80;3.10;;;;;;;9.67;47.43;99727.59;107443;1258;109725;-66
2023/03/09 04:18:07;;;;;;;5.20;3.10;;;;;;;9.64;47.34;99727.55;107491;1254;106744;-66
2023/03/09 04:20:38;;;;;;;11.50;3.90;;;;;;;9.67;47.23;99725.77;107462;1258;99204;-65
2023/03/09 04:23:08;;;;;;;14.70;3.90;;;;;;;9.67;47.37;99732.39;107356;1260;99723;-66
2023/03/09 04:25:39;;;;;;;17.30;7.70;;;;;;;9.66;47.47;99740.23;107299;1257;112382;-65
2023/03/09 04:28:08;;;;;;;8.60;3.80;;;;;;;9.59;47.64;99736.95;107460;1254;110162;-65
2023/03/09 04:30:41;;;;;;;15.30;4.40;;;;;;;9.53;47.79;99735.96;107470;1254;108702;-64
2023/03/09 04:33:12;;;;;;;48.20;6.40;;;;;;;9.49;47.97;99732.84;107321;1260;99170;-64
2023/03/09 04:35:42;;;;;;;19.00;5.70;;;;;;;9.44;48.05;99734.91;107448;1260;99281;-65
2023/03/09 04:38:18;;;;;;;27.70;5.80;;;;;;;9.33;48.49;99736.92;107367;1254;112628;-65
2023/03/09 04:40:48;;;;;;;10.90;4.80;;;;;;;9.18;48.68;99735.62;107337;1259;109189;-64
2023/03/09 04:43:17;;;;;;;10.00;4.50;;;;;;;9.05;48.94;99731.93;107470;1255;107795;-64
2023/03/09 04:45:47;;;;;;;9.50;4.10;;;;;;;8.90;49.48;99732.91;107346;1254;99153;-65
2023/03/09 04:48:15;;;;;;;19.40;3.70;;;;;;;8.78;49.81;99734.62;107359;1254;100302;-64
2023/03/09 04:50:44;;;;;;;12.00;4.20;;;;;;;8.66;50.11;99734.31;107384;1255;113859;-63
2023/03/09 04:53:14;;;;;;;17.10;5.10;;;;;;;8.55;50.51;99738.06;107487;1254;109714;-64
2023/03/09 04:55:42;;;;;;;28.00;5.30;;;;;;;8.44;50.69;99735.30;107291;1257;108852;-64
2023/03/09 04:58:13;;;;;;;11.30;4.10;;;;;;;8.33;51.35;99734.77;107425;1259;99175;-65
2023/03/09 05:00:41;;;;;;;13.80;4.10;;;;;;;8.21;51.33;99734.64;107452;1254;99048;-64
2023/03/09 05:03:11;;;;;;;13.90;4.20;;;;;;;8.12;51.59;99738.89;107316;1257;113300;-66
2023/03/09 05:05:45;;;;;;;13.90;4.40;;;;;;;8.05;51.78;99737.02;107430;1257;109417;-65
2023/03/09 05:08:14;;;;;;;22.40;4.40;;;;;;;7.98;51.99;99737.02;107389;1259;109025;-64
2023/03/09 05:10:42;;;;;;;18.90;4.70;;;;;;;7.92;52.29;99733.73;107301;1257;99245;-64
2023/03/09 05:13:12;;;;;;;19.30;4.00;;;;;;;7.88;52.47;99738.09;107293;1258;99707;-64
2023/03/09 05:15:41;;;;;;;14.30;4.90;;;;;;;7.84;53.00;99738.58;107339;1257;113234;-64
2023/03/09 05:18:11;;;;;;;13.40;5.60;;;;;;;7.81;53.01;99738.73;107319;1257;110080;-66
2023/03/09 05:20:40;;;;;;;21.60;5.20;;;;;;;7.79;53.16;99742.14;107381;1260;107746;-64
2023/03/09 05:23:10;;;;;;;16.60;5.20;;;;;;;7.77;53.43;99744.28;107418;1260;99168;-66
2023/03/09 05:25:38;;;;;;;18.50;6.00;;;;;;;7.77;53.61;99747.14;107381;1258;99068;-65
2023/03/09 05:28:11;;;;;;;23.00;6.60;;;;;;;7.76;53.70;99745.81;107389;1260;113701;-66
2023/03/09 05:30:41;;;;;;;29.70;5.70;;;;;;;7.77;54.07;99750.74;107348;1255;109069;-66
2023/03/09 05:33:10;;;;;;;29.90;5.80;;;;;;;7.76;54.20;99754.54;107368;1257;108669;-65
2023/03/09 05:35:40;;;;;;;15.30;4.90;;;;;;;7.79;54.49;99754.46;107379;1259;99310;-65
2023/03/09 05:38:09;;;;;;;14.00;5.30;;;;;;;7.84;54.40;99756.48;107453;1260;100903;-65
2023/03/09 05:40:38;;;;;;;19.60;4.50;;;;;;;7.97;53.93;99755.80;107419;1258;113718;-66
2023/03/09 05:43:09;;;;;;;19.80;5.10;;;;;;;8.14;53.76;99752.64;107380;1254;109836;-65
2023/03/09 05:45:38;;;;;;;34.30;6.70;;;;;;;8.29;53.57;99750.73;107305;1254;107681;-66
2023/03/09 05:48:07;;;;;;;23.70;5.90;;;;;;;8.41;53.57;99754.31;107401;1254;99199;-66
2023/03/09 05:50:50;;;;;;;32.70;9.70;;;;;;;8.53;53.23;99754.50;107341;1260;99119;-66
2023/03/09 05:53:24;;;;;;;29.50;6.00;;;;;;;8.71;52.51;99751.56;107189;1255;113158;-68
2023/03/09 05:55:59;;;;;;;18.40;5.70;;;;;;;8.87;52.11;99752.80;107326;1255;109613;-65
2023/03/09 05:58:29;;;;;;;19.30;5.30;;;;;;;9.01;51.54;99747.00;107387;1254;108140;-66
2023/03/09 06:00:59;;;;;;;21.60;5.60;;;;;;;9.16;50.90;99744.25;107427;1254;99417;-65
2023/03/09 06:03:28;;;;;;;16.40;5.60;;;;;;;9.29;50.81;99741.59;107419;1254;99730;-65
2023/03/09 06:06:05;;;;;;;16.30;6.40;;;;;;;9.39;50.79;99741.64;107440;1254;113137;-65
2023/03/09 06:08:39;;;;;;;15.10;6.40;;;;;;;9.49;50.86;99741.36;107320;1257;109715;-65
2023/03/09 06:11:13;;;;;;;19.20;7.80;;;;;;;9.58;50.63;99738.48;107244;1257;108131;-64
2023/03/09 06:13:42;;;;;;;19.50;6.70;;;;;;;9.68;50.13;99731.55;107258;1257;99320;-64
2023/03/09 06:16:15;;;;;;;19.30;6.10;;;;;;;9.80;50.09;99735.27;107287;1257;99743;-65
2023/03/09 06:18:44;;;;;;;21.40;8.40;;;;;;;9.89;50.03;99729.30;107213;1257;113435;-64
2023/03/09 06:21:14;;;;;;;19.60;5.60;;;;;;;9.99;49.76;99725.05;107274;1257;109360;-63
2023/03/09 06:23:42;;;;;;;39.40;7.90;;;;;;;10.10;49.62;99724.27;107241;1260;107266;-65
2023/03/09 06:26:13;;;;;;;25.20;6.60;;;;;;;10.19;49.49;99720.06;107406;1254;99179;-64
2023/03/09 06:28:48;;;;;;;15.40;6.30;;;;;;;10.28;49.29;99711.70;107306;1254;99326;-64
2023/03/09 06:31:18;;;;;;;24.70;6.30;;;;;;;10.34;49.25;99713.01;107407;1254;114209;-66
2023/03/09 06:33:50;;;;;;;20.80;6.10;;;;;;;10.41;48.98;99712.16;107438;1254;110069;-65
2023/03/09 06:36:19;;;;;;;21.00;6.00;;;;;;;10.48;48.94;99706.08;107326;1260;106667;-64
2023/03/09 06:38:51;;;;;;;18.90;5.60;;;;;;;10.54;48.93;99706.55;107368;1254;99176;-65
2023/03/09 06:41:29;;;;;;;25.40;6.00;;;;;;;10.60;48.81;99709.83;107389;1254;99174;-63
2023/03/09 06:44:00;;;;;;;25.20;5.10;;;;;;;10.68;48.64;99712.21;107393;1255;114676;-64
2023/03/09 06:46:30;;;;;;;16.20;4.50;;;;;;;10.81;47.83;99707.04;107424;1254;109592;-64
2023/03/09 06:48:59;;;;;;;19.00;4.60;;;;;;;11.03;47.10;99706.20;107423;1254;108516;-64
2023/03/09 06:51:29;;;;;;;16.40;3.90;;;;;;;11.32;46.03;99710.55;107430;1254;99231;-64
2023/03/09 06:53:58;;;;;;;18.10;4.00;;;;;;;11.62;45.48;99704.83;107406;1254;99186;-63
2023/03/09 06:56:31;;;;;;;6.00;3.30;;;;;;;11.88;44.94;99706.09;107458;1254;112612;-65
2023/03/09 06:59:00;;;;;;;16.80;3.70;;;;;;;12.15;44.34;99706.16;107441;1254;109520;-66
2023/03/09 07:01:28;;;;;;;12.80;4.10;;;;;;;12.41;43.89;99713.28;107278;1254;109325;-65
2023/03/09 07:04:01;;;;;;;9.20;3.40;;;;;;;12.64;42.94;99713.23;107152;1256;99196;-65
2023/03/09 07:06:31;;;;;;;8.30;3.60;;;;;;;12.80;42.68;99713.55;107045;1254;99244;-64
2023/03/09 07:08:59;;;;;;;13.50;3.70;;;;;;;12.96;42.03;99713.39;107448;1254;113720;-64
2023/03/09 07:11:28;;;;;;;7.70;3.30;;;;;;;13.08;41.63;99714.34;107417;1254;110587;-63
2023/03/09 07:13:56;;;;;;;15.20;3.60;;;;;;;13.18;41.64;99715.14;107402;1254;108407;-63
2023/03/09 07:16:25;;;;;;;10.10;2.90;;;;;;;13.29;41.32;99717.27;107379;1254;99170;-64
2023/03/09 07:18:54;;;;;;;11.50;3.60;;;;;;;13.37;41.53;99713.58;107444;1254;99794;-65
2023/03/09 07:21:23;;;;;;;18.40;3.40;;;;;;;13.47;41.60;99706.05;107422;1255;113481;-64
2023/03/09 07:23:51;;;;;;;9.20;3.20;;;;;;;13.61;40.80;99706.55;107328;1255;109729;-65
2023/03/09 07:26:20;;;;;;;16.90;4.00;;;;;;;13.76;40.34;99710.20;107398;1254;108522;-65
2023/03/09 07:28:48;;;;;;;11.20;3.70;;;;;;;13.91;39.92;99704.98;107436;1254;99294;-65
2023/03/09 07:31:17;;;;;;;13.40;3.30;;;;;;;14.03;40.10;99700.54;107395;1257;99202;-65
2023/03/09 07:33:49;;;;;;;15.90;4.20;;;;;;;14.21;39.58;99701.45;107420;1254;113092;-65
2023/03/09 07:36:17;;;;;;;13.70;3.80;;;;;;;14.32;39.85;99692.86;107449;1258;109717;-65
2023/03/09 07:38:47;;;;;;;10.90;3.80;;;;;;;14.43;39.50;99690.68;107408;1254;109313;-65
2023/03/09 07:41:17;;;;;;;10.60;4.10;;;;;;;14.56;39.12;99688.77;107442;1257;99045;-65
2023/03/09 07:43:45;;;;;;;11.10;3.60;;;;;;;14.63;39.08;99678.50;107427;1254;99172;-65
2023/03/09 07:46:22;;;;;;;11.90;3.30;;;;;;;14.68;38.75;99675.84;107425;1254;113309;-65
2023/03/09 07:48:51;;;;;;;16.30;3.50;;;;;;;14.75;38.70;99672.75;107394;1254;110659;-64
2023/03/09 07:51:23;;;;;;;7.30;3.00;;;;;;;14.82;38.45;99671.80;107450;1254;108219;-66
2023/03/09 07:53:51;;;;;;;11.10;3.60;;;;;;;14.92;38.35;99669.35;107447;1258;99064;-66
2023/03/09 07:56:19;;;;;;;17.30;3.10;;;;;;;15.01;38.26;99674.20;107437;1254;99333;-66
2023/03/09 07:58:51;;;;;;;13.10;3.20;;;;;;;15.13;37.76;99663.07;107462;1254;112671;-66
2023/03/09 08:01:20;;;;;;;13.20;2.90;;;;;;;15.28;37.54;99661.30;107441;1254;108872;-65
2023/03/09 08:03:48;;;;;;;13.60;3.70;;;;;;;15.38;37.34;99655.09;107448;1254;109711;-65
2023/03/09 08:06:18;;;;;;;14.30;2.80;;;;;;;15.51;37.09;99652.23;107381;1259;99219;-65
2023/03/09 08:08:47;;;;;;;6.40;2.20;;;;;;;15.62;37.19;99645.39;107385;1259;99233;-66
2023/03/09 08:11:16;;;;;;;12.60;2.80;;;;;;;15.77;36.76;99651.92;107405;1257;112802;-65
2023/03/09 08:13:44;;;;;;;7.20;2.60;;;;;;;15.95;36.18;99658.38;107391;1256;112237;-66
2023/03/09 08:16:13;;;;;;;7.50;2.10;;;;;;;16.12;35.79;99650.09;107387;1256;108005;-66
2023/03/09 08:18:42;;;;;;;7.90;2.60;;;;;;;16.22;35.83;99645.27;107398;1257;99064;-68
2023/03/09 08:21:14;;;;;;;5.70;2.20;;;;;;;16.35;35.67;99638.55;107408;1257;99708;-65
2023/03/09 08:23:46;;;;;;;11.10;2.20;;;;;;;16.47;35.77;99638.08;107425;1257;113393;-66
2023/03/09 08:26:16;;;;;;;11.30;2.30;;;;;;;16.62;35.11;99636.91;107450;1254;108746;-66
2023/03/09 08:28:45;;;;;;;10.30;2.70;;;;;;;16.78;34.63;99629.17;107452;1254;106746;-67
2023/03/09 08:31:16;;;;;;;13.10;2.20;;;;;;;16.90;34.46;99623.91;107409;1257;99185;-67
2023/03/09 08:33:46;;;;;;;5.60;2.60;;;;;;;17.08;34.11;99622.89;107420;1257;99190;-66
2023/03/09 08:36:17;;;;;;;5.30;2.00;;;;;;;17.27;33.72;99612.56;107424;1257;114326;-67
2023/03/09 08:38:46;;;;;;;5.70;2.10;;;;;;;17.49;33.19;99614.45;107401;1257;110201;-66
2023/03/09 08:41:16;;;;;;;8.90;2.10;;;;;;;17.65;33.16;99608.39;107426;1257;108073;-67
2023/03/09 08:43:45;;;;;;;4.60;2.00;;;;;;;17.82;33.04;99607.91;107394;1256;99204;-67
2023/03/09 08:46:14;;;;;;;8.50;2.40;;;;;;;18.01;33.16;99604.64;107405;1257;99711;-67
2023/03/09 08:48:46;;;;;;;9.20;2.10;;;;;;;18.20;32.56;99598.38;107406;1257;112698;-65
2023/03/09 08:51:14;;;;;;;12.80;2.10;;;;;;;18.24;31.86;99608.45;107390;1257;110025;-66
2023/03/09 08:53:43;;;;;;;7.80;2.30;;;;;;;18.25;32.53;99598.20;107357;1258;109377;-66
2023/03/09 08:56:13;;;;;;;12.30;2.40;;;;;;;18.29;32.01;99598.84;107390;1256;99201;-65
2023/03/09 08:58:42;;;;;;;12.30;2.50;;;;;;;18.35;31.83;99597.39;107274;1256;99157;-65
2023/03/09 09:01:10;;;;;;;10.90;2.50;;;;;;;18.37;32.17;99591.34;107420;1258;113238;-66
2023/03/09 09:03:39;;;;;;;9.20;2.80;;;;;;;18.46;31.48;99590.46;107372;1257;109636;-66
2023/03/09 09:06:13;;;;;;;11.70;2.10;;;;;;;18.51;31.66;99580.27;107399;1255;108731;-66
2023/03/09 09:08:42;;;;;;;5.70;2.30;;;;;;;18.58;31.59;99575.20;107279;1257;99076;-66
2023/03/09 09:11:14;;;;;;;7.80;2.30;;;;;;;18.70;31.68;99578.55;107326;1257;99208;-65
2023/03/09 09:13:43;;;;;;;7.60;2.70;;;;;;;18.89;31.20;99578.20;107312;1256;113678;-67
2023/03/09 09:16:16;;;;;;;6.10;1.80;;;;;;;19.14;30.56;99579.46;107327;1260;109050;-67
2023/03/09 09:18:44;;;;;;;5.00;2.00;;;;;;;19.30;30.36;99578.95;107428;1257;107849;-67
2023/03/09 09:21:15;;;;;;;7.30;2.20;;;;;;;19.49;30.12;99575.30;107352;1257;99255;-66
2023/03/09 09:23:45;;;;;;;6.60;2.10;;;;;;;19.74;29.66;99565.48;107395;1255;99721;-67
2023/03/09 09:26:14;;;;;;;9.90;2.50;;;;;;;20.01;29.22;99576.67;107394;1256;112233;-67
2023/03/09 09:28:44;;;;;;;7.00;2.20;;;;;;;20.37;28.65;99584.09;107411;1254;109728;-67
2023/03/09 09:31:17;;;;;;;6.40;2.10;;;;;;;20.79;28.21;99587.81;107425;1257;107382;-67
2023/03/09 09:33:47;;;;;;;13.40;1.60;;;;;;;21.60;27.40;99584.17;107228;1260;99163;-67
2023/03/09 09:36:18;;;;;;;3.50;1.70;;;;;;;22.33;25.92;99591.14;107389;1254;99736;-67
2023/03/09 09:38:47;;;;;;;5.30;1.90;;;;;;;22.59;25.96;99581.75;107404;1257;112794;-66
2023/03/09 09:41:45;;;;;;;4.90;1.90;;;;;;;23.20;25.34;99581.14;107368;1255;109661;-65
2023/03/09 09:44:18;;;;;;;6.00;2.20;;;;;;;24.20;24.37;99580.71;107366;1257;108433;-65
2023/03/09 09:46:48;;;;;;;4.60;1.70;;;;;;;24.59;23.87;99568.81;107410;1254;99807;-66
2023/03/09 09:49:23;;;;;;;11.30;1.70;;;;;;;24.77;22.78;99575.81;107360;1254;99197;-66
2023/03/09 09:52:01;;;;;;;7.00;1.60;;;;;;;24.20;24.21;99573.31;107410;1257;112774;-66
2023/03/09 09:54:55;;;;;;;4.20;1.70;;;;;;;24.00;23.97;99581.45;106506;1255;109757;-66
2023/03/09 09:57:48;;;;;;;5.80;1.50;;;;;;;23.89;23.84;99577.95;107419;1257;107077;-68
2023/03/09 10:00:28;;;;;;;;;;;;;;;24.23;23.48;99580.42;107365;1256;99340;-65
2023/03/09 10:03:05;;;;;;;15.70;2.20;;;;;;;24.49;22.99;99567.70;107389;1257;99149;-67
2023/03/09 10:05:56;;;;;;;5.00;1.60;;;;;;;25.13;22.82;99563.05;107388;1256;113810;-66
2023/03/09 10:08:41;;;;;;;13.20;1.70;;;;;;;25.84;22.39;99553.43;107368;1257;109906;-65
2023/03/09 10:11:28;;;;;;;9.40;1.80;;;;;;;26.13;21.80;99557.60;107250;1257;107644;-66
2023/03/09 10:14:11;;;;;;;3.10;1.30;;;;;;;26.39;21.41;99549.92;107329;1257;99259;-66
2023/03/09 10:16:47;;;;;;;7.20;1.40;;;;;;;26.29;21.41;99543.17;107382;1257;99070;-66
2023/03/09 10:19:20;;;;;;;5.20;1.70;;;;;;;26.62;22.01;99546.83;107411;1256;113089;-68
2023/03/09 10:21:57;;;;;;;3.90;1.40;;;;;;;27.37;21.05;99547.27;107418;1254;109647;-66
2023/03/09 10:24:40;;;;;;;6.00;1.60;;;;;;;27.96;19.46;99552.79;107412;1254;108236;-65
2023/03/09 10:27:26;;;;;;;11.50;1.80;;;;;;;27.62;19.67;99560.27;107423;1254;99176;-65
2023/03/09 10:29:59;;;;;;;4.10;1.40;;;;;;;27.65;19.84;99543.14;107382;1256;99173;-66
2023/03/09 10:32:57;;;;;;;6.00;1.50;;;;;;;27.72;19.84;99532.98;107406;1257;113251;-66
2023/03/09 10:35:25;;;;;;;12.20;1.80;;;;;;;27.88;19.89;99528.77;107389;1257;110433;-66
2023/03/09 10:37:54;;;;;;;12.50;1.90;;;;;;;28.64;18.70;99534.37;107371;1256;108424;-69
2023/03/09 10:40:34;;;;;;;6.60;1.90;;;;;;;28.82;19.27;99527.78;107299;1255;99223;-66
2023/03/09 10:43:09;;;;;;;5.50;1.40;;;;;;;29.41;18.88;99520.55;107373;1256;99140;-69
2023/03/09 10:45:42;;;;;;;6.10;1.50;;;;;;;29.53;18.13;99524.39;107236;1254;113487;-68
2023/03/09 10:48:24;;;;;;;14.40;1.80;;;;;;;28.89;18.12;99515.94;107203;1256;109228;-66
2023/03/09 10:51:04;;;;;;;6.30;2.00;;;;;;;28.46;18.41;99506.77;107386;1257;108421;-67
2023/03/09 10:53:41;;;;;;;13.00;2.70;;;;;;;28.11;19.68;99500.00;107357;1257;99202;-66
2023/03/09 10:56:15;;;;;;;12.60;2.00;;;;;;;27.54;19.60;99513.61;107379;1257;99173;-65
2023/03/09 10:58:44;;;;;;;13.20;2.30;;;;;;;26.99;19.87;99509.92;107355;1257;113447;-65
2023/03/09 11:01:12;;;;;;;9.40;1.80;;;;;;;26.46;20.38;99513.54;107393;1257;109883;-66
2023/03/09 11:03:42;;;;;;;12.80;1.90;;;;;;;25.92;20.79;99512.42;107340;1255;108213;-66
2023/03/09 11:06:36;;;;;;;9.20;2.00;;;;;;;25.18;21.52;99513.46;107401;1257;99252;-66
2023/03/09 11:09:15;;;;;;;15.10;1.70;;;;;;;24.44;22.23;99509.92;107312;1256;99713;-66
2023/03/09 11:11:47;;;;;;;6.10;2.10;;;;;;;24.10;22.84;99493.58;107306;1260;113364;-65
2023/03/09 11:14:21;;;;;;;9.50;2.00;;;;;;;24.10;22.94;99495.72;107261;1257;109202;-64
2023/03/09 11:16:52;;;;;;;7.70;1.90;;;;;;;24.25;22.92;99487.35;107255;1256;108733;-65
2023/03/09 11:19:23;;;;;;;9.90;2.20;;;;;;;24.34;22.77;99495.16;107301;1256;99177;-66
2023/03/09 11:22:01;;;;;;;5.20;2.30;;;;;;;24.16;22.96;99480.53;107178;1261;99313;-66
2023/03/09 11:24:38;;;;;;;10.20;2.90;;;;;;;24.01;23.21;99483.38;107317;1256;113735;-65
2023/03/09 11:27:16;;;;;;;6.00;2.40;;;;;;;23.79;23.49;99478.99;107396;1257;109501;-67
2023/03/09 11:29:54;;;;;;;16.30;2.00;;;;;;;23.47;23.84;99474.42;107420;1256;107821;-66
2023/03/09 11:32:23;;;;;;;8.20;2.10;;;;;;;23.02;24.24;99476.27;107268;1256;99182;-65
2023/03/09 11:34:53;;;;;;;13.60;1.70;;;;;;;22.57;24.83;99469.63;107341;1256;99064;-66
2023/03/09 11:37:57;;;;;;;5.00;1.50;;;;;;;22.16;25.41;99478.21;107411;1257;113452;-66
2023/03/09 11:40:33;;;;;;;5.10;1.70;;;;;;;21.69;25.92;99476.38;107337;1256;109804;-67